createdAt,value
2022-11-18T00:00:19.520Z,98047.56
2022-11-18T00:00:50.789Z,98046.38
2022-11-18T00:01:22.628Z,98056.19
2022-11-18T00:01:53.928Z,98053.69
2022-11-18T00:02:25.281Z,98052.06
2022-11-18T00:02:56.596Z,98054.72
2022-11-18T00:03:27.874Z,98056.34
2022-11-18T00:03:59.133Z,98054.53
2022-11-18T00:04:30.398Z,98051.22
2022-11-18T00:05:01.667Z,98059.00
2022-11-18T00:05:32.951Z,98056.34
2022-11-18T00:06:04.298Z,98059.00
2022-11-18T00:06:35.572Z,98061.50
2022-11-18T00:07:06.900Z,98060.69
2022-11-18T00:07:38.280Z,98058.03
2022-11-18T00:08:09.616Z,98067.66
2022-11-18T00:08:40.978Z,98066.34
2022-11-18T00:09:12.231Z,98071.50
2022-11-18T00:09:43.502Z,98069.66
2022-11-18T00:10:14.757Z,98067.00
2022-11-18T00:10:46.070Z,98064.34
2022-11-18T00:11:18.367Z,98066.00
2022-11-18T00:11:49.630Z,98068.03
2022-11-18T00:12:20.900Z,98071.31
2022-11-18T00:12:52.177Z,98069.66
2022-11-18T00:13:23.440Z,98068.03
2022-11-18T00:13:54.681Z,98072.50
2022-11-18T00:14:25.942Z,98069.03
2022-11-18T00:14:57.180Z,98073.53
2022-11-18T00:15:31.679Z,98071.50
2022-11-18T00:16:03.692Z,98068.03
2022-11-18T00:16:34.973Z,98073.34
2022-11-18T00:17:06.356Z,98072.69
2022-11-18T00:17:37.655Z,98068.84
2022-11-18T00:18:08.912Z,98072.50
2022-11-18T00:18:40.172Z,98081.34
2022-11-18T00:19:11.449Z,98084.00
2022-11-18T00:19:42.732Z,98072.50
2022-11-18T00:20:14.148Z,98069.03
2022-11-18T00:20:45.418Z,98074.97
2022-11-18T00:21:16.723Z,98069.66
2022-11-18T00:21:48.075Z,98079.47
2022-11-18T00:22:19.311Z,98073.34
2022-11-18T00:22:50.566Z,98071.69
2022-11-18T00:23:21.823Z,98073.34
2022-11-18T00:23:53.093Z,98080.13
2022-11-18T00:24:24.348Z,98074.81
2022-11-18T00:24:55.633Z,98072.59
2022-11-18T00:25:27.075Z,98079.94
2022-11-18T00:26:08.032Z,98078.78
2022-11-18T00:26:39.315Z,98083.75
2022-11-18T00:27:10.614Z,98077.22
2022-11-18T00:27:41.917Z,98084.19
2022-11-18T00:28:13.226Z,98080.34
2022-11-18T00:28:44.515Z,98075.22
2022-11-18T00:29:16.406Z,98075.22
2022-11-18T00:29:47.975Z,98075.22
2022-11-18T00:30:19.279Z,98086.69
2022-11-18T00:30:50.550Z,98084.19
2022-11-18T00:31:21.846Z,98082.16
2022-11-18T00:31:53.138Z,98076.84
2022-11-18T00:32:24.459Z,98069.88
2022-11-18T00:32:55.833Z,98077.88
2022-11-18T00:33:27.087Z,98072.38
2022-11-18T00:33:58.386Z,98070.72
2022-11-18T00:34:29.725Z,98069.88
2022-11-18T00:35:01.016Z,98082.16
2022-11-18T00:35:32.285Z,98080.53
2022-11-18T00:36:04.119Z,98076.03
2022-11-18T00:36:35.393Z,98076.03
2022-11-18T00:37:06.627Z,98077.69
2022-11-18T00:37:37.888Z,98076.84
2022-11-18T00:38:09.178Z,98073.56
2022-11-18T00:38:40.529Z,98076.38
2022-11-18T00:39:12.142Z,98080.22
2022-11-18T00:39:43.422Z,98081.91
2022-11-18T00:40:14.738Z,98083.75
2022-11-18T00:40:46.010Z,98078.41
2022-11-18T00:41:17.309Z,98087.22
2022-11-18T00:41:48.685Z,98078.59
2022-11-18T00:42:19.950Z,98087.22
2022-11-18T00:42:51.245Z,98081.06
2022-11-18T00:43:22.516Z,98091.06
2022-11-18T00:43:53.786Z,98081.91
2022-11-18T00:44:25.102Z,98088.88
2022-11-18T00:44:56.415Z,98085.38
2022-11-18T00:45:27.700Z,98081.06
2022-11-18T00:45:59.000Z,98089.25
2022-11-18T00:46:30.263Z,98092.72
2022-11-18T00:47:01.579Z,98083.91
2022-11-18T00:47:32.855Z,98091.22
2022-11-18T00:48:04.315Z,98089.88
2022-11-18T00:48:35.736Z,98088.56
2022-11-18T00:49:07.139Z,98087.56
2022-11-18T00:49:38.399Z,98089.06
2022-11-18T00:50:09.751Z,98088.22
2022-11-18T00:50:41.036Z,98091.72
2022-11-18T00:51:16.498Z,98094.38
2022-11-18T00:51:47.762Z,98084.56
2022-11-18T00:52:19.061Z,98087.22
2022-11-18T00:52:50.318Z,98086.22
2022-11-18T00:53:21.858Z,98087.03
2022-11-18T00:53:53.166Z,98085.38
2022-11-18T00:54:24.451Z,98087.03
2022-11-18T00:54:55.735Z,98086.22
2022-11-18T00:55:27.030Z,98077.22
2022-11-18T00:55:58.321Z,98088.88
2022-11-18T00:56:29.613Z,98086.22
2022-11-18T00:57:00.933Z,98086.84
2022-11-18T00:57:32.202Z,98088.69
2022-11-18T00:58:03.473Z,98090.50
2022-11-18T00:58:34.928Z,98093.19
2022-11-18T00:59:06.238Z,98098.50
2022-11-18T00:59:37.540Z,98100.34
2022-11-18T01:00:09.153Z,98098.50
2022-11-18T01:00:41.127Z,98099.53
2022-11-18T01:01:12.592Z,98097.69
2022-11-18T01:01:43.993Z,98102.19
2022-11-18T01:02:15.321Z,98107.50
2022-11-18T01:02:46.604Z,98101.16
2022-11-18T01:03:17.909Z,98104.84
2022-11-18T01:03:49.189Z,98103.19
2022-11-18T01:04:20.443Z,98090.88
2022-11-18T01:04:51.761Z,98094.38
2022-11-18T01:05:23.049Z,98102.53
2022-11-18T01:05:54.339Z,98095.38
2022-11-18T01:06:25.629Z,98098.03
2022-11-18T01:06:56.970Z,98096.00
2022-11-18T01:07:28.345Z,98092.34
2022-11-18T01:07:59.721Z,98097.69
2022-11-18T01:08:31.011Z,98101.16
2022-11-18T01:09:02.299Z,98100.34
2022-11-18T01:09:33.587Z,98101.34
2022-11-18T01:10:05.018Z,98102.19
2022-11-18T01:10:36.475Z,98096.88
2022-11-18T01:11:07.783Z,98103.81
2022-11-18T01:11:39.073Z,98106.66
2022-11-18T01:12:11.079Z,98105.66
2022-11-18T01:12:42.350Z,98109.16
2022-11-18T01:13:14.114Z,98103.00
2022-11-18T01:13:45.404Z,98100.53
2022-11-18T01:14:16.700Z,98101.34
2022-11-18T01:14:47.995Z,98098.84
2022-11-18T01:15:19.316Z,98103.81
2022-11-18T01:15:51.434Z,98105.50
2022-11-18T01:16:23.400Z,98102.00
2022-11-18T01:16:55.270Z,98104.84
2022-11-18T01:17:29.216Z,98105.50
2022-11-18T01:18:00.514Z,98106.47
2022-11-18T01:18:31.768Z,98106.31
2022-11-18T01:19:03.022Z,98109.50
2022-11-18T01:19:34.400Z,98108.50
2022-11-18T01:20:05.963Z,98107.50
2022-11-18T01:20:37.251Z,98108.31
2022-11-18T01:21:08.534Z,98105.03
2022-11-18T01:21:41.924Z,98112.84
2022-11-18T01:22:13.230Z,98111.16
2022-11-18T01:22:44.512Z,98111.16
2022-11-18T01:23:15.793Z,98113.66
2022-11-18T01:23:47.086Z,98112.84
2022-11-18T01:24:18.321Z,98112.16
2022-11-18T01:24:49.600Z,98107.88
2022-11-18T01:25:20.867Z,98112.84
2022-11-18T01:25:52.157Z,98112.84
2022-11-18T01:26:23.438Z,98113.00
2022-11-18T01:26:54.732Z,98110.19
2022-11-18T01:27:26.016Z,98106.66
2022-11-18T01:27:57.315Z,98107.69
2022-11-18T01:28:28.616Z,98114.47
2022-11-18T01:28:59.869Z,98105.84
2022-11-18T01:29:31.162Z,98106.47
2022-11-18T01:30:02.493Z,98108.16
2022-11-18T01:30:34.359Z,98107.50
2022-11-18T01:31:06.226Z,98111.16
2022-11-18T01:31:49.892Z,98110.34
2022-11-18T01:32:28.765Z,98105.66
2022-11-18T01:33:00.080Z,98103.19
2022-11-18T01:33:31.556Z,98109.16
2022-11-18T01:34:02.850Z,98117.97
2022-11-18T01:34:34.109Z,98109.16
2022-11-18T01:35:05.573Z,98110.81
2022-11-18T01:35:40.908Z,98116.13
2022-11-18T01:36:18.811Z,98118.78
2022-11-18T01:36:51.936Z,98112.66
2022-11-18T01:37:23.233Z,98118.78
2022-11-18T01:37:54.548Z,98115.13
2022-11-18T01:38:25.843Z,98117.81
2022-11-18T01:38:57.118Z,98118.78
2022-11-18T01:39:28.411Z,98120.47
2022-11-18T01:39:59.769Z,98120.63
2022-11-18T01:40:31.156Z,98115.97
2022-11-18T01:41:02.433Z,98127.78
2022-11-18T01:41:33.727Z,98121.47
2022-11-18T01:42:05.031Z,98122.44
2022-11-18T01:42:36.333Z,98123.47
2022-11-18T01:43:14.286Z,98130.44
2022-11-18T01:43:49.498Z,98125.13
2022-11-18T01:44:39.428Z,98114.47
2022-11-18T01:45:15.752Z,98131.28
2022-11-18T01:45:47.772Z,98121.63
2022-11-18T01:46:19.284Z,98124.47
2022-11-18T01:46:50.582Z,98127.13
2022-11-18T01:47:21.880Z,98125.47
2022-11-18T01:48:05.365Z,98129.97
2022-11-18T01:48:36.654Z,98130.78
2022-11-18T01:49:08.885Z,98127.94
2022-11-18T01:49:40.190Z,98130.78
2022-11-18T01:50:11.796Z,98128.13
2022-11-18T01:50:44.351Z,98129.16
2022-11-18T01:51:16.312Z,98124.47
2022-11-18T01:51:49.131Z,98126.97
2022-11-18T01:52:20.626Z,98130.63
2022-11-18T01:52:52.414Z,98125.28
2022-11-18T01:53:25.902Z,98120.81
2022-11-18T01:54:02.763Z,98133.94
2022-11-18T01:54:34.402Z,98126.16
2022-11-18T01:55:15.964Z,98129.63
2022-11-18T01:55:47.833Z,98126.78
2022-11-18T01:56:21.870Z,98125.97
2022-11-18T01:56:54.105Z,98122.28
2022-11-18T01:57:25.405Z,98117.81
2022-11-18T01:58:02.129Z,98125.78
2022-11-18T01:58:39.928Z,98127.59
2022-11-18T01:59:11.847Z,98126.44
2022-11-18T01:59:43.352Z,98119.63
2022-11-18T02:00:14.699Z,98119.44
2022-11-18T02:00:45.978Z,98125.78
2022-11-18T02:01:17.255Z,98123.94
2022-11-18T02:01:48.567Z,98122.94
2022-11-18T02:02:19.848Z,98123.75
2022-11-18T02:02:51.121Z,98127.41
2022-11-18T02:03:22.385Z,98119.44
2022-11-18T02:03:53.641Z,98128.63
2022-11-18T02:04:25.193Z,98128.63
2022-11-18T02:04:56.492Z,98123.94
2022-11-18T02:05:27.773Z,98126.78
2022-11-18T02:05:59.640Z,98127.94
2022-11-18T02:06:30.962Z,98130.44
2022-11-18T02:07:02.275Z,98125.28
2022-11-18T02:07:34.520Z,98119.78
2022-11-18T02:08:05.835Z,98128.44
2022-11-18T02:08:37.117Z,98133.78
2022-11-18T02:09:08.405Z,98130.44
2022-11-18T02:09:39.706Z,98132.28
2022-11-18T02:10:16.815Z,98133.09
2022-11-18T02:10:48.116Z,98134.75
2022-11-18T02:11:19.408Z,98133.78
2022-11-18T02:11:50.776Z,98134.94
2022-11-18T02:12:22.152Z,98135.75
2022-11-18T02:12:53.772Z,98141.75
2022-11-18T02:13:25.045Z,98144.59
2022-11-18T02:13:56.728Z,98139.09
2022-11-18T02:14:28.720Z,98139.09
2022-11-18T02:15:00.011Z,98139.09
2022-11-18T02:15:34.014Z,98131.75
2022-11-18T02:16:06.722Z,98132.75
2022-11-18T02:16:56.185Z,98136.44
2022-11-18T02:17:31.078Z,98142.41
2022-11-18T02:18:17.310Z,98148.72
2022-11-18T02:18:55.525Z,98141.75
2022-11-18T02:19:45.364Z,98152.56
2022-11-18T02:20:16.625Z,98152.94
2022-11-18T02:20:47.943Z,98149.25
2022-11-18T02:21:21.752Z,98156.22
2022-11-18T02:21:52.985Z,98157.91
2022-11-18T02:22:42.720Z,98152.56
2022-11-18T02:23:13.963Z,98155.06
2022-11-18T02:23:51.477Z,98156.88
2022-11-18T02:24:25.871Z,98159.34
2022-11-18T02:25:19.118Z,98157.56
2022-11-18T02:26:08.616Z,98160.38
2022-11-18T02:26:54.982Z,98160.38
2022-11-18T02:27:44.970Z,98154.41
2022-11-18T02:28:34.995Z,98161.56
2022-11-18T02:29:09.647Z,98161.56
2022-11-18T02:29:42.528Z,98161.38
2022-11-18T02:30:13.811Z,98162.19
2022-11-18T02:30:48.915Z,98165.88
2022-11-18T02:31:21.810Z,98165.88
2022-11-18T02:31:55.865Z,98172.84
2022-11-18T02:32:33.516Z,98171.38
2022-11-18T02:33:07.017Z,98168.72
2022-11-18T02:33:49.937Z,98174.69
2022-11-18T02:34:39.726Z,98170.53
2022-11-18T02:35:10.967Z,98174.69
2022-11-18T02:35:46.718Z,98180.00
2022-11-18T02:36:18.973Z,98180.84
2022-11-18T02:36:55.220Z,98182.69
2022-11-18T02:37:55.639Z,98181.69
2022-11-18T02:38:27.576Z,98174.69
2022-11-18T02:39:09.054Z,98173.03
2022-11-18T02:39:43.421Z,98169.38
2022-11-18T02:40:14.698Z,98176.34
2022-11-18T02:40:47.075Z,98176.53
2022-11-18T02:41:20.261Z,98175.69
2022-11-18T02:41:51.581Z,98182.03
2022-11-18T02:42:22.869Z,98178.34
2022-11-18T02:42:58.431Z,98174.06
2022-11-18T02:43:36.426Z,98176.53
2022-11-18T02:44:14.333Z,98178.34
2022-11-18T02:44:46.806Z,98182.69
2022-11-18T02:45:18.126Z,98180.00
2022-11-18T02:45:49.683Z,98179.38
2022-11-18T02:46:24.098Z,98176.53
2022-11-18T02:46:56.296Z,98184.34
2022-11-18T02:47:27.578Z,98181.69
2022-11-18T02:47:59.902Z,98181.69
2022-11-18T02:48:31.217Z,98181.69
2022-11-18T02:49:02.990Z,98184.34
2022-11-18T02:49:44.192Z,98185.50
2022-11-18T02:50:16.659Z,98185.34
2022-11-18T02:50:48.308Z,98175.50
2022-11-18T02:51:20.836Z,98187.00
2022-11-18T02:51:52.128Z,98178.16
2022-11-18T02:52:23.415Z,98185.34
2022-11-18T02:52:59.507Z,98177.72
2022-11-18T02:53:30.854Z,98182.03
2022-11-18T02:54:05.787Z,98187.19
2022-11-18T02:54:37.577Z,98179.03
2022-11-18T02:55:09.232Z,98188.81
2022-11-18T02:55:40.509Z,98185.50
2022-11-18T02:56:11.755Z,98188.00
2022-11-18T02:56:43.023Z,98186.34
2022-11-18T02:57:14.310Z,98187.34
2022-11-18T02:57:45.602Z,98185.50
2022-11-18T02:58:17.863Z,98185.50
2022-11-18T02:58:49.143Z,98180.19
2022-11-18T02:59:20.604Z,98189.84
2022-11-18T02:59:51.890Z,98182.03
2022-11-18T03:00:23.178Z,98178.34
2022-11-18T03:00:55.153Z,98183.66
2022-11-18T03:01:26.880Z,98178.34
2022-11-18T03:01:58.369Z,98180.00
2022-11-18T03:02:38.944Z,98189.66
2022-11-18T03:03:25.246Z,98180.19
2022-11-18T03:03:56.582Z,98181.84
2022-11-18T03:04:27.849Z,98182.84
2022-11-18T03:04:59.128Z,98188.19
2022-11-18T03:05:33.670Z,98187.00
2022-11-18T03:06:23.672Z,98177.34
2022-11-18T03:07:06.656Z,98187.00
2022-11-18T03:07:38.072Z,98186.16
2022-11-18T03:08:11.082Z,98179.84
2022-11-18T03:08:44.592Z,98180.66
2022-11-18T03:09:20.940Z,98181.50
2022-11-18T03:09:52.276Z,98192.31
2022-11-18T03:10:23.821Z,98187.00
2022-11-18T03:11:00.685Z,98184.53
2022-11-18T03:11:39.058Z,98180.00
2022-11-18T03:12:28.665Z,98188.00
2022-11-18T03:13:05.669Z,98187.81
2022-11-18T03:13:43.393Z,98187.81
2022-11-18T03:14:23.927Z,98183.31
2022-11-18T03:15:13.896Z,98182.50
2022-11-18T03:15:45.130Z,98195.97
2022-11-18T03:16:21.513Z,98196.63
2022-11-18T03:17:02.909Z,98195.16
2022-11-18T03:17:45.628Z,98189.84
2022-11-18T03:18:28.135Z,98194.31
2022-11-18T03:19:03.196Z,98188.00
2022-11-18T03:19:51.597Z,98191.66
2022-11-18T03:20:27.066Z,98187.00
2022-11-18T03:21:18.580Z,98185.34
2022-11-18T03:21:56.901Z,98185.69
2022-11-18T03:22:31.168Z,98193.50
2022-11-18T03:23:04.519Z,98188.00
2022-11-18T03:23:38.945Z,98190.66
2022-11-18T03:24:13.195Z,98192.31
2022-11-18T03:24:45.830Z,98188.00
2022-11-18T03:25:24.718Z,98196.34
2022-11-18T03:26:06.236Z,98196.16
2022-11-18T03:26:38.917Z,98196.16
2022-11-18T03:27:14.647Z,98190.84
2022-11-18T03:28:06.173Z,98198.81
2022-11-18T03:28:42.774Z,98190.66
2022-11-18T03:29:18.213Z,98194.31
2022-11-18T03:29:52.440Z,98190.66
2022-11-18T03:30:23.759Z,98195.97
2022-11-18T03:31:14.809Z,98196.16
2022-11-18T03:31:50.083Z,98198.66
2022-11-18T03:32:23.389Z,98200.50
2022-11-18T03:32:59.084Z,98203.16
2022-11-18T03:33:32.376Z,98198.66
2022-11-18T03:34:08.356Z,98196.81
2022-11-18T03:34:40.637Z,98200.13
2022-11-18T03:35:13.372Z,98206.28
2022-11-18T03:35:45.549Z,98206.28
2022-11-18T03:36:16.821Z,98204.59
2022-11-18T03:36:51.966Z,98202.81
2022-11-18T03:37:23.550Z,98208.31
2022-11-18T03:37:56.424Z,98202.97
2022-11-18T03:38:28.937Z,98211.78
2022-11-18T03:39:00.290Z,98204.59
2022-11-18T03:39:32.042Z,98205.47
2022-11-18T03:40:05.145Z,98212.78
2022-11-18T03:40:36.845Z,98210.09
2022-11-18T03:41:08.573Z,98209.94
2022-11-18T03:41:40.982Z,98207.28
2022-11-18T03:42:21.357Z,98210.78
2022-11-18T03:43:00.482Z,98206.44
2022-11-18T03:43:32.330Z,98211.78
2022-11-18T03:44:07.668Z,98203.97
2022-11-18T03:44:39.795Z,98218.94
2022-11-18T03:45:24.848Z,98209.13
2022-11-18T03:46:06.991Z,98214.44
2022-11-18T03:46:39.252Z,98219.75
2022-11-18T03:47:12.139Z,98217.09
2022-11-18T03:47:44.800Z,98210.09
2022-11-18T03:48:16.729Z,98217.91
2022-11-18T03:48:49.246Z,98213.63
2022-11-18T03:49:30.538Z,98213.44
2022-11-18T03:50:04.364Z,98211.59
2022-11-18T03:50:36.232Z,98215.09
2022-11-18T03:51:08.564Z,98212.41
2022-11-18T03:51:40.700Z,98218.78
2022-11-18T03:52:15.770Z,98218.09
2022-11-18T03:52:47.068Z,98218.78
2022-11-18T03:53:18.466Z,98219.59
2022-11-18T03:53:54.217Z,98222.25
2022-11-18T03:54:27.176Z,98219.41
2022-11-18T03:54:58.532Z,98216.56
2022-11-18T03:55:31.046Z,98218.56
2022-11-18T03:56:04.012Z,98216.94
2022-11-18T03:56:37.012Z,98216.09
2022-11-18T03:57:27.723Z,98218.94
2022-11-18T03:58:06.606Z,98228.22
2022-11-18T03:58:46.955Z,98232.06
2022-11-18T03:59:19.401Z,98229.41
2022-11-18T03:59:52.469Z,98232.91
2022-11-18T04:00:23.758Z,98226.75
2022-11-18T04:00:56.861Z,98227.56
2022-11-18T04:01:35.822Z,98227.56
2022-11-18T04:02:11.334Z,98224.91
2022-11-18T04:02:42.680Z,98224.91
2022-11-18T04:03:13.952Z,98223.25
2022-11-18T04:03:45.223Z,98220.75
2022-11-18T04:04:16.486Z,98226.94
2022-11-18T04:04:48.214Z,98220.59
2022-11-18T04:05:19.509Z,98214.44
2022-11-18T04:05:50.885Z,98223.25
2022-11-18T04:06:26.860Z,98216.94
2022-11-18T04:07:02.840Z,98225.72
2022-11-18T04:07:52.213Z,98218.56
2022-11-18T04:08:24.708Z,98223.72
2022-11-18T04:08:56.615Z,98219.22
2022-11-18T04:09:29.689Z,98222.88
2022-11-18T04:10:04.084Z,98225.56
2022-11-18T04:10:37.699Z,98222.88
2022-11-18T04:11:10.073Z,98225.56
2022-11-18T04:11:45.012Z,98224.56
2022-11-18T04:12:17.455Z,98224.56
2022-11-18T04:12:49.758Z,98225.19
2022-11-18T04:13:28.103Z,98234.19
2022-11-18T04:13:59.437Z,98225.38
2022-11-18T04:14:31.468Z,98230.53
2022-11-18T04:15:02.729Z,98227.88
2022-11-18T04:15:36.529Z,98228.84
2022-11-18T04:16:07.820Z,98234.19
2022-11-18T04:16:41.989Z,98231.53
2022-11-18T04:17:14.175Z,98234.00
2022-11-18T04:17:45.467Z,98229.88
2022-11-18T04:18:16.804Z,98236.66
2022-11-18T04:18:48.112Z,98236.66
2022-11-18T04:19:19.553Z,98234.19
2022-11-18T04:19:51.075Z,98230.69
2022-11-18T04:20:22.358Z,98234.19
2022-11-18T04:20:53.708Z,98236.84
2022-11-18T04:21:25.002Z,98236.84
2022-11-18T04:21:56.309Z,98239.50
2022-11-18T04:22:27.571Z,98240.34
2022-11-18T04:22:58.866Z,98239.50
2022-11-18T04:23:30.153Z,98241.19
2022-11-18T04:24:01.521Z,98239.50
2022-11-18T04:24:32.855Z,98243.19
2022-11-18T04:25:04.199Z,98249.34
2022-11-18T04:25:35.669Z,98244.84
2022-11-18T04:26:06.965Z,98249.34
2022-11-18T04:26:38.266Z,98251.81
2022-11-18T04:27:09.531Z,98250.16
2022-11-18T04:27:40.864Z,98248.16
2022-11-18T04:28:12.160Z,98246.50
2022-11-18T04:28:43.446Z,98244.00
2022-11-18T04:29:14.933Z,98251.00
2022-11-18T04:29:46.325Z,98247.50
2022-11-18T04:30:17.675Z,98255.47
2022-11-18T04:30:48.947Z,98250.16
2022-11-18T04:31:20.244Z,98246.84
2022-11-18T04:31:51.500Z,98242.53
2022-11-18T04:32:22.770Z,98252.16
2022-11-18T04:32:54.041Z,98247.66
2022-11-18T04:33:25.291Z,98257.50
2022-11-18T04:33:56.571Z,98248.50
2022-11-18T04:34:27.843Z,98251.19
2022-11-18T04:34:59.105Z,98249.34
2022-11-18T04:35:30.382Z,98249.34
2022-11-18T04:36:01.644Z,98248.50
2022-11-18T04:36:32.921Z,98247.66
2022-11-18T04:37:04.215Z,98248.69
2022-11-18T04:37:35.524Z,98248.50
2022-11-18T04:38:06.811Z,98242.16
2022-11-18T04:38:38.093Z,98250.31
2022-11-18T04:39:09.453Z,98255.47
2022-11-18T04:39:40.755Z,98251.81
2022-11-18T04:40:12.103Z,98246.50
2022-11-18T04:40:43.344Z,98251.81
2022-11-18T04:41:14.658Z,98248.50
2022-11-18T04:41:45.981Z,98259.34
2022-11-18T04:42:17.245Z,98261.81
2022-11-18T04:42:48.515Z,98260.97
2022-11-18T04:43:19.774Z,98252.16
2022-11-18T04:43:51.032Z,98256.31
2022-11-18T04:44:22.939Z,98255.47
2022-11-18T04:44:54.265Z,98257.16
2022-11-18T04:45:25.572Z,98264.31
2022-11-18T04:45:56.832Z,98253.00
2022-11-18T04:46:28.109Z,98246.03
2022-11-18T04:47:00.571Z,98263.63
2022-11-18T04:47:31.850Z,98252.16
2022-11-18T04:48:03.913Z,98266.13
2022-11-18T04:48:35.417Z,98266.13
2022-11-18T04:49:07.045Z,98268.63
2022-11-18T04:49:38.354Z,98261.81
2022-11-18T04:50:09.786Z,98267.16
2022-11-18T04:50:41.062Z,98263.47
2022-11-18T04:51:12.342Z,98268.63
2022-11-18T04:51:43.640Z,98269.63
2022-11-18T04:52:14.909Z,98265.31
2022-11-18T04:52:46.169Z,98265.13
2022-11-18T04:53:17.465Z,98265.31
2022-11-18T04:53:48.736Z,98262.66
2022-11-18T04:54:20.010Z,98265.13
2022-11-18T04:54:51.298Z,98269.63
2022-11-18T04:55:22.644Z,98271.28
2022-11-18T04:55:53.931Z,98264.97
2022-11-18T04:56:25.210Z,98273.13
2022-11-18T04:56:56.539Z,98274.78
2022-11-18T04:57:27.849Z,98272.47
2022-11-18T04:57:59.152Z,98276.59
2022-11-18T04:58:30.444Z,98270.47
2022-11-18T04:59:02.418Z,98272.13
2022-11-18T04:59:33.697Z,98273.75
2022-11-18T05:00:05.290Z,98281.75
2022-11-18T05:00:36.606Z,98278.09
2022-11-18T05:01:07.989Z,98279.09
2022-11-18T05:01:39.377Z,98274.63
2022-11-18T05:02:10.645Z,98275.59
2022-11-18T05:02:41.910Z,98275.78
2022-11-18T05:03:14.635Z,98275.94
2022-11-18T05:03:50.392Z,98278.44
2022-11-18T05:04:22.981Z,98272.31
2022-11-18T05:04:54.292Z,98273.28
2022-11-18T05:05:25.597Z,98269.63
2022-11-18T05:05:56.954Z,98277.44
2022-11-18T05:06:28.383Z,98276.41
2022-11-18T05:07:00.233Z,98280.94
2022-11-18T05:07:31.938Z,98280.09
2022-11-18T05:08:03.371Z,98280.47
2022-11-18T05:08:34.651Z,98280.09
2022-11-18T05:09:05.942Z,98289.91
2022-11-18T05:09:37.191Z,98292.41
2022-11-18T05:10:08.672Z,98287.06
2022-11-18T05:10:39.975Z,98291.41
2022-11-18T05:11:11.231Z,98291.41
2022-11-18T05:11:42.508Z,98286.91
2022-11-18T05:12:13.831Z,98288.09
2022-11-18T05:12:45.135Z,98296.91
2022-11-18T05:13:16.420Z,98297.72
2022-11-18T05:13:47.715Z,98298.75
2022-11-18T05:14:19.049Z,98296.09
2022-11-18T05:14:51.077Z,98301.41
2022-11-18T05:15:22.565Z,98297.72
2022-11-18T05:15:53.858Z,98294.88
2022-11-18T05:16:25.127Z,98294.25
2022-11-18T05:16:57.013Z,98300.56
2022-11-18T05:17:28.300Z,98293.59
2022-11-18T05:17:59.586Z,98300.72
2022-11-18T05:18:30.855Z,98299.75
2022-11-18T05:19:02.467Z,98292.75
2022-11-18T05:19:33.787Z,98295.22
2022-11-18T05:20:05.252Z,98303.91
2022-11-18T05:20:41.333Z,98296.91
2022-11-18T05:21:13.168Z,98300.72
2022-11-18T05:21:44.558Z,98307.09
2022-11-18T05:22:15.858Z,98305.06
2022-11-18T05:22:47.140Z,98308.72
2022-11-18T05:23:18.412Z,98304.25
2022-11-18T05:23:49.728Z,98303.41
2022-11-18T05:24:21.033Z,98306.91
2022-11-18T05:24:52.332Z,98303.41
2022-11-18T05:25:23.597Z,98303.41
2022-11-18T05:25:58.310Z,98305.06
2022-11-18T05:26:33.579Z,98305.88
2022-11-18T05:27:04.876Z,98298.56
2022-11-18T05:27:36.188Z,98304.06
2022-11-18T05:28:07.517Z,98303.91
2022-11-18T05:28:38.803Z,98302.06
2022-11-18T05:29:10.348Z,98309.22
2022-11-18T05:29:41.633Z,98300.56
2022-11-18T05:30:13.406Z,98310.03
2022-11-18T05:30:44.712Z,98310.03
2022-11-18T05:31:16.129Z,98310.38
2022-11-18T05:31:47.807Z,98304.06
2022-11-18T05:32:19.071Z,98308.53
2022-11-18T05:32:50.345Z,98314.72
2022-11-18T05:33:21.634Z,98306.72
2022-11-18T05:33:52.919Z,98309.22
2022-11-18T05:34:24.165Z,98308.38
2022-11-18T05:34:55.482Z,98312.53
2022-11-18T05:35:26.744Z,98310.03
2022-11-18T05:35:58.066Z,98317.03
2022-11-18T05:36:29.365Z,98316.34
2022-11-18T05:37:00.652Z,98311.72
2022-11-18T05:37:32.125Z,98313.69
2022-11-18T05:38:03.463Z,98317.03
2022-11-18T05:38:34.799Z,98310.03
2022-11-18T05:39:06.159Z,98311.22
2022-11-18T05:39:37.453Z,98319.03
2022-11-18T05:40:09.189Z,98318.03
2022-11-18T05:40:42.130Z,98318.03
2022-11-18T05:41:13.388Z,98319.69
2022-11-18T05:41:44.654Z,98321.50
2022-11-18T05:42:15.927Z,98321.50
2022-11-18T05:42:47.240Z,98323.34
2022-11-18T05:43:18.515Z,98315.38
2022-11-18T05:43:49.822Z,98317.22
2022-11-18T05:44:21.085Z,98319.03
2022-11-18T05:44:57.687Z,98319.88
2022-11-18T05:45:29.606Z,98322.16
2022-11-18T05:46:00.972Z,98317.03
2022-11-18T05:46:32.349Z,98318.84
2022-11-18T05:47:03.621Z,98320.69
2022-11-18T05:47:34.902Z,98325.19
2022-11-18T05:48:06.527Z,98321.50
2022-11-18T05:48:37.844Z,98319.50
2022-11-18T05:49:09.130Z,98319.69
2022-11-18T05:49:40.432Z,98324.00
2022-11-18T05:50:11.707Z,98333.81
2022-11-18T05:50:45.271Z,98326.81
2022-11-18T05:51:16.539Z,98322.53
2022-11-18T05:51:47.841Z,98328.03
2022-11-18T05:52:19.090Z,98328.03
2022-11-18T05:52:50.383Z,98334.00
2022-11-18T05:53:24.757Z,98326.00
2022-11-18T05:53:56.040Z,98320.03
2022-11-18T05:54:27.312Z,98327.19
2022-11-18T05:54:58.591Z,98326.00
2022-11-18T05:55:31.647Z,98328.84
2022-11-18T05:56:05.725Z,98329.84
2022-11-18T05:56:40.406Z,98329.03
2022-11-18T05:57:11.681Z,98328.84
2022-11-18T05:57:42.977Z,98329.66
2022-11-18T05:58:14.345Z,98326.19
2022-11-18T05:58:45.644Z,98327.00
2022-11-18T05:59:17.204Z,98332.16
2022-11-18T05:59:48.644Z,98335.66
2022-11-18T06:00:19.920Z,98333.00
2022-11-18T06:00:52.401Z,98336.31
2022-11-18T06:01:25.115Z,98334.66
2022-11-18T06:01:57.893Z,98331.00
2022-11-18T06:02:29.218Z,98331.97
2022-11-18T06:03:00.536Z,98337.47
2022-11-18T06:03:32.005Z,98335.84
2022-11-18T06:04:03.856Z,98333.34
2022-11-18T06:04:37.212Z,98334.00
2022-11-18T06:05:08.611Z,98336.66
2022-11-18T06:05:39.889Z,98330.69
2022-11-18T06:06:11.177Z,98330.53
2022-11-18T06:06:42.651Z,98335.00
2022-11-18T06:07:20.385Z,98335.16
2022-11-18T06:07:51.753Z,98331.69
2022-11-18T06:08:23.295Z,98335.34
2022-11-18T06:08:59.864Z,98331.69
2022-11-18T06:09:31.695Z,98329.03
2022-11-18T06:10:05.861Z,98330.00
2022-11-18T06:10:37.548Z,98332.84
2022-11-18T06:11:09.154Z,98335.34
2022-11-18T06:11:41.670Z,98324.69
2022-11-18T06:12:14.018Z,98334.69
2022-11-18T06:12:45.890Z,98329.38
2022-11-18T06:13:20.837Z,98327.91
2022-11-18T06:13:54.397Z,98336.38
2022-11-18T06:14:27.089Z,98333.88
2022-11-18T06:15:00.035Z,98340.66
2022-11-18T06:15:32.730Z,98336.38
2022-11-18T06:16:04.068Z,98340.66
2022-11-18T06:16:40.550Z,98346.16
2022-11-18T06:17:14.406Z,98345.50
2022-11-18T06:17:49.732Z,98350.66
2022-11-18T06:18:24.426Z,98349.66
2022-11-18T06:18:55.668Z,98355.00
2022-11-18T06:19:26.954Z,98358.66
2022-11-18T06:19:58.251Z,98359.84
2022-11-18T06:20:29.535Z,98357.66
2022-11-18T06:21:01.441Z,98360.31
2022-11-18T06:21:33.069Z,98362.81
2022-11-18T06:22:04.659Z,98359.13
2022-11-18T06:22:35.921Z,98363.81
2022-11-18T06:23:07.198Z,98368.97
2022-11-18T06:23:38.708Z,98362.63
2022-11-18T06:24:10.002Z,98364.44
2022-11-18T06:24:41.551Z,98359.13
2022-11-18T06:25:12.852Z,98367.13
2022-11-18T06:25:44.108Z,98358.31
2022-11-18T06:26:15.511Z,98366.28
2022-11-18T06:26:46.780Z,98363.63